sensor_id;sensor_type;location;lat;lon;timestamp;temperature;humidity
18067;DHT22;9158;51.528;7.192;2022-08-19T00:00:11;19.70;1.00
18067;DHT22;9158;51.528;7.192;2022-08-19T00:00:44;19.70;1.00
18067;DHT22;9158;51.528;7.192;2022-08-19T00:01:16;19.70;1.00
18067;DHT22;9158;51.528;7.192;2022-08-19T00:01:49;19.70;1.00
18067;DHT22;9158;51.528;7.192;2022-08-19T00:02:20;19.70;1.00
18067;DHT22;9158;51.528;7.192;2022-08-19T00:02:52;19.70;2.60
18067;DHT22;9158;51.528;7.192;2022-08-19T00:03:23;19.70;1.00
18067;DHT22;9158;51.528;7.192;2022-08-19T00:03:54;19.70;1.00
18067;DHT22;9158;51.528;7.192;2022-08-19T00:04:28;19.70;1.00
18067;DHT22;9158;51.528;7.192;2022-08-19T00:05:00;19.70;1.00
18067;DHT22;9158;51.528;7.192;2022-08-19T00:05:31;19.70;1.00
18067;DHT22;9158;51.528;7.192;2022-08-19T00:06:03;19.70;1.00
18067;DHT22;9158;51.528;7.192;2022-08-19T00:06:35;19.70;1.00
18067;DHT22;9158;51.528;7.192;2022-08-19T00:07:06;19.70;1.00
18067;DHT22;9158;51.528;7.192;2022-08-19T00:07:38;19.70;1.00
18067;DHT22;9158;51.528;7.192;2022-08-19T00:08:10;19.70;1.00
18067;DHT22;9158;51.528;7.192;2022-08-19T00:08:41;19.70;1.00
18067;DHT22;9158;51.528;7.192;2022-08-19T00:09:16;19.70;1.00
18067;DHT22;9158;51.528;7.192;2022-08-19T00:09:48;19.70;1.00
18067;DHT22;9158;51.528;7.192;2022-08-19T00:10:19;19.70;1.00
18067;DHT22;9158;51.528;7.192;2022-08-19T00:10:52;19.70;4.80
18067;DHT22;9158;51.528;7.192;2022-08-19T00:11:24;19.70;5.90
18067;DHT22;9158;51.528;7.192;2022-08-19T00:11:58;19.60;11.90
18067;DHT22;9158;51.528;7.192;2022-08-19T00:12:30;19.60;23.80
18067;DHT22;9158;51.528;7.192;2022-08-19T00:13:02;19.70;34.90
18067;DHT22;9158;51.528;7.192;2022-08-19T00:13:33;19.70;33.20
18067;DHT22;9158;51.528;7.192;2022-08-19T00:14:06;19.70;1.00
18067;DHT22;9158;51.528;7.192;2022-08-19T00:14:39;19.70;1.00
18067;DHT22;9158;51.528;7.192;2022-08-19T00:15:14;19.70;1.00
18067;DHT22;9158;51.528;7.192;2022-08-19T00:15:46;19.70;1.00
18067;DHT22;9158;51.528;7.192;2022-08-19T00:16:17;19.70;1.00
18067;DHT22;9158;51.528;7.192;2022-08-19T00:16:52;19.70;1.00
18067;DHT22;9158;51.528;7.192;2022-08-19T00:17:24;19.70;1.00
18067;DHT22;9158;51.528;7.192;2022-08-19T00:17:55;19.60;1.00
18067;DHT22;9158;51.528;7.192;2022-08-19T00:18:26;19.70;1.00
18067;DHT22;9158;51.528;7.192;2022-08-19T00:18:58;19.70;1.00
18067;DHT22;9158;51.528;7.192;2022-08-19T00:19:30;19.70;1.00
18067;DHT22;9158;51.528;7.192;2022-08-19T00:20:03;19.70;1.00
18067;DHT22;9158;51.528;7.192;2022-08-19T00:20:35;19.70;1.00
18067;DHT22;9158;51.528;7.192;2022-08-19T00:21:06;19.60;1.00
18067;DHT22;9158;51.528;7.192;2022-08-19T00:21:40;19.60;1.00
18067;DHT22;9158;51.528;7.192;2022-08-19T00:22:12;19.50;1.00
18067;DHT22;9158;51.528;7.192;2022-08-19T00:22:43;19.50;1.00
18067;DHT22;9158;51.528;7.192;2022-08-19T00:23:14;19.40;1.00
18067;DHT22;9158;51.528;7.192;2022-08-19T00:23:46;19.40;1.00
18067;DHT22;9158;51.528;7.192;2022-08-19T00:24:18;19.30;1.00
18067;DHT22;9158;51.528;7.192;2022-08-19T00:24:49;19.30;1.00
18067;DHT22;9158;51.528;7.192;2022-08-19T00:25:21;19.20;1.00
18067;DHT22;9158;51.528;7.192;2022-08-19T00:25:53;19.20;1.00
18067;DHT22;9158;51.528;7.192;2022-08-19T00:26:25;19.00;1.00
18067;DHT22;9158;51.528;7.192;2022-08-19T00:26:57;19.10;1.00
18067;DHT22;9158;51.528;7.192;2022-08-19T00:27:28;19.10;1.00
18067;DHT22;9158;51.528;7.192;2022-08-19T00:27:59;19.10;1.00
18067;DHT22;9158;51.528;7.192;2022-08-19T00:28:32;19.10;1.00
18067;DHT22;9158;51.528;7.192;2022-08-19T00:29:04;19.10;1.00
18067;DHT22;9158;51.528;7.192;2022-08-19T00:29:36;19.00;9.60
18067;DHT22;9158;51.528;7.192;2022-08-19T00:30:08;19.00;9.70
18067;DHT22;9158;51.528;7.192;2022-08-19T00:30:40;19.00;22.70
18067;DHT22;9158;51.528;7.192;2022-08-19T00:31:11;19.00;14.80
18067;DHT22;9158;51.528;7.192;2022-08-19T00:31:44;19.00;67.40
18067;DHT22;9158;51.528;7.192;2022-08-19T00:32:15;19.00;28.60
18067;DHT22;9158;51.528;7.192;2022-08-19T00:32:46;19.10;17.60
18067;DHT22;9158;51.528;7.192;2022-08-19T00:33:19;19.10;28.10
18067;DHT22;9158;51.528;7.192;2022-08-19T00:33:50;19.10;33.40
18067;DHT22;9158;51.528;7.192;2022-08-19T00:34:22;19.10;55.40
18067;DHT22;9158;51.528;7.192;2022-08-19T00:34:53;19.10;57.60
18067;DHT22;9158;51.528;7.192;2022-08-19T00:35:25;19.10;70.90
18067;DHT22;9158;51.528;7.192;2022-08-19T00:35:58;19.20;60.00
18067;DHT22;9158;51.528;7.192;2022-08-19T00:36:29;19.20;56.60
18067;DHT22;9158;51.528;7.192;2022-08-19T00:37:02;19.20;15.80
18067;DHT22;9158;51.528;7.192;2022-08-19T00:37:33;19.20;1.00
18067;DHT22;9158;51.528;7.192;2022-08-19T00:38:05;19.10;1.00
18067;DHT22;9158;51.528;7.192;2022-08-19T00:38:39;19.10;1.00
18067;DHT22;9158;51.528;7.192;2022-08-19T00:39:13;19.10;23.20
18067;DHT22;9158;51.528;7.192;2022-08-19T00:39:45;19.10;51.70
18067;DHT22;9158;51.528;7.192;2022-08-19T00:40:18;19.10;73.70
18067;DHT22;9158;51.528;7.192;2022-08-19T00:40:49;19.00;49.90
18067;DHT22;9158;51.528;7.192;2022-08-19T00:41:24;19.00;47.80
18067;DHT22;9158;51.528;7.192;2022-08-19T00:41:56;19.10;71.20
18067;DHT22;9158;51.528;7.192;2022-08-19T00:42:27;19.10;81.70
18067;DHT22;9158;51.528;7.192;2022-08-19T00:42:59;19.10;99.90
18067;DHT22;9158;51.528;7.192;2022-08-19T00:43:31;19.10;99.90
18067;DHT22;9158;51.528;7.192;2022-08-19T00:44:04;19.10;99.90
18067;DHT22;9158;51.528;7.192;2022-08-19T00:44:36;19.10;31.40
18067;DHT22;9158;51.528;7.192;2022-08-19T00:45:11;19.10;28.70
18067;DHT22;9158;51.528;7.192;2022-08-19T00:45:43;19.20;18.80
18067;DHT22;9158;51.528;7.192;2022-08-19T00:46:14;19.20;15.10
18067;DHT22;9158;51.528;7.192;2022-08-19T00:46:48;19.20;5.40
18067;DHT22;9158;51.528;7.192;2022-08-19T00:47:19;19.20;99.90
18067;DHT22;9158;51.528;7.192;2022-08-19T00:47:50;19.20;99.90
18067;DHT22;9158;51.528;7.192;2022-08-19T00:48:22;19.20;25.10
18067;DHT22;9158;51.528;7.192;2022-08-19T00:48:54;19.30;1.00
18067;DHT22;9158;51.528;7.192;2022-08-19T00:49:31;19.30;1.00
18067;DHT22;9158;51.528;7.192;2022-08-19T00:50:05;19.30;1.00
18067;DHT22;9158;51.528;7.192;2022-08-19T00:50:36;19.30;1.00
18067;DHT22;9158;51.528;7.192;2022-08-19T00:51:10;19.20;1.00
18067;DHT22;9158;51.528;7.192;2022-08-19T00:51:45;19.30;1.00
18067;DHT22;9158;51.528;7.192;2022-08-19T00:52:21;19.30;1.00
18067;DHT22;9158;51.528;7.192;2022-08-19T00:52:53;19.30;1.00
18067;DHT22;9158;51.528;7.192;2022-08-19T00:53:29;19.30;1.00
18067;DHT22;9158;51.528;7.192;2022-08-19T00:54:03;19.30;1.00
18067;DHT22;9158;51.528;7.192;2022-08-19T00:54:35;19.30;1.00
18067;DHT22;9158;51.528;7.192;2022-08-19T00:55:09;19.30;1.00
18067;DHT22;9158;51.528;7.192;2022-08-19T00:55:45;19.20;1.00
18067;DHT22;9158;51.528;7.192;2022-08-19T00:56:16;19.30;1.20
18067;DHT22;9158;51.528;7.192;2022-08-19T00:56:50;19.30;1.00
18067;DHT22;9158;51.528;7.192;2022-08-19T00:57:27;19.20;1.00
18067;DHT22;9158;51.528;7.192;2022-08-19T00:58:01;19.20;1.00
18067;DHT22;9158;51.528;7.192;2022-08-19T00:58:35;19.20;1.00
18067;DHT22;9158;51.528;7.192;2022-08-19T00:59:07;19.20;1.00
18067;DHT22;9158;51.528;7.192;2022-08-19T00:59:40;19.10;1.00
18067;DHT22;9158;51.528;7.192;2022-08-19T01:00:17;19.10;1.00
18067;DHT22;9158;51.528;7.192;2022-08-19T01:00:49;19.10;1.00
18067;DHT22;9158;51.528;7.192;2022-08-19T01:01:20;19.10;1.00
18067;DHT22;9158;51.528;7.192;2022-08-19T01:01:52;19.10;1.00
18067;DHT22;9158;51.528;7.192;2022-08-19T01:02:23;19.10;1.00
18067;DHT22;9158;51.528;7.192;2022-08-19T01:02:55;19.10;7.90
18067;DHT22;9158;51.528;7.192;2022-08-19T01:03:27;19.10;1.00
18067;DHT22;9158;51.528;7.192;2022-08-19T01:03:58;19.10;1.00
18067;DHT22;9158;51.528;7.192;2022-08-19T01:04:29;19.00;1.00
18067;DHT22;9158;51.528;7.192;2022-08-19T01:05:04;19.00;1.00
18067;DHT22;9158;51.528;7.192;2022-08-19T01:05:37;19.00;1.00
18067;DHT22;9158;51.528;7.192;2022-08-19T01:06:10;19.00;1.00
18067;DHT22;9158;51.528;7.192;2022-08-19T01:06:42;19.00;1.00
18067;DHT22;9158;51.528;7.192;2022-08-19T01:07:13;19.00;1.00
18067;DHT22;9158;51.528;7.192;2022-08-19T01:07:44;19.00;1.00
18067;DHT22;9158;51.528;7.192;2022-08-19T01:08:18;19.00;1.00
18067;DHT22;9158;51.528;7.192;2022-08-19T01:08:49;18.90;99.90
18067;DHT22;9158;51.528;7.192;2022-08-19T01:09:20;18.90;29.80
18067;DHT22;9158;51.528;7.192;2022-08-19T01:09:52;18.90;1.00
18067;DHT22;9158;51.528;7.192;2022-08-19T01:10:26;18.90;1.00
18067;DHT22;9158;51.528;7.192;2022-08-19T01:10:59;18.90;9.90
18067;DHT22;9158;51.528;7.192;2022-08-19T01:11:34;18.90;9.60
18067;DHT22;9158;51.528;7.192;2022-08-19T01:12:07;18.90;13.90
18067;DHT22;9158;51.528;7.192;2022-08-19T01:12:39;18.90;22.00
18067;DHT22;9158;51.528;7.192;2022-08-19T01:13:13;18.90;68.40
18067;DHT22;9158;51.528;7.192;2022-08-19T01:13:45;18.90;95.80
18067;DHT22;9158;51.528;7.192;2022-08-19T01:14:17;18.90;99.90
18067;DHT22;9158;51.528;7.192;2022-08-19T01:14:50;18.90;99.90
18067;DHT22;9158;51.528;7.192;2022-08-19T01:15:26;18.90;56.10
18067;DHT22;9158;51.528;7.192;2022-08-19T01:16:01;19.00;15.20
18067;DHT22;9158;51.528;7.192;2022-08-19T01:16:35;19.00;99.90
18067;DHT22;9158;51.528;7.192;2022-08-19T01:17:08;19.00;12.50
18067;DHT22;9158;51.528;7.192;2022-08-19T01:17:40;19.00;46.80
18067;DHT22;9158;51.528;7.192;2022-08-19T01:18:15;18.90;21.30
18067;DHT22;9158;51.528;7.192;2022-08-19T01:18:47;18.90;36.00
18067;DHT22;9158;51.528;7.192;2022-08-19T01:19:24;18.90;56.70
18067;DHT22;9158;51.528;7.192;2022-08-19T01:19:57;18.80;56.80
18067;DHT22;9158;51.528;7.192;2022-08-19T01:20:28;18.80;94.30
18067;DHT22;9158;51.528;7.192;2022-08-19T01:21:02;18.80;99.90
18067;DHT22;9158;51.528;7.192;2022-08-19T01:21:40;18.80;99.90
18067;DHT22;9158;51.528;7.192;2022-08-19T01:22:19;18.70;99.90
18067;DHT22;9158;51.528;7.192;2022-08-19T01:22:55;18.70;99.90
18067;DHT22;9158;51.528;7.192;2022-08-19T01:23:27;18.70;99.90
18067;DHT22;9158;51.528;7.192;2022-08-19T01:24:13;18.80;99.90
18067;DHT22;9158;51.528;7.192;2022-08-19T01:24:45;18.80;99.90
18067;DHT22;9158;51.528;7.192;2022-08-19T01:25:19;18.80;99.90
18067;DHT22;9158;51.528;7.192;2022-08-19T01:25:52;18.80;99.90
18067;DHT22;9158;51.528;7.192;2022-08-19T01:26:26;18.80;99.90
18067;DHT22;9158;51.528;7.192;2022-08-19T01:26:57;18.80;99.90
18067;DHT22;9158;51.528;7.192;2022-08-19T01:27:36;18.80;99.90
18067;DHT22;9158;51.528;7.192;2022-08-19T01:28:07;18.80;99.90
18067;DHT22;9158;51.528;7.192;2022-08-19T01:28:41;18.90;99.90
18067;DHT22;9158;51.528;7.192;2022-08-19T01:29:12;18.90;99.90
18067;DHT22;9158;51.528;7.192;2022-08-19T01:29:44;18.90;99.90
18067;DHT22;9158;51.528;7.192;2022-08-19T01:30:20;18.90;99.90
18067;DHT22;9158;51.528;7.192;2022-08-19T01:30:53;18.90;99.90
18067;DHT22;9158;51.528;7.192;2022-08-19T01:31:26;18.90;99.90
18067;DHT22;9158;51.528;7.192;2022-08-19T01:32:01;18.90;99.90
18067;DHT22;9158;51.528;7.192;2022-08-19T01:32:32;18.90;99.90
18067;DHT22;9158;51.528;7.192;2022-08-19T01:33:03;18.90;99.90
18067;DHT22;9158;51.528;7.192;2022-08-19T01:33:36;18.90;99.90
18067;DHT22;9158;51.528;7.192;2022-08-19T01:34:07;18.80;99.90
18067;DHT22;9158;51.528;7.192;2022-08-19T01:34:38;18.80;99.90
18067;DHT22;9158;51.528;7.192;2022-08-19T01:35:12;18.80;99.90
18067;DHT22;9158;51.528;7.192;2022-08-19T01:35:43;18.70;99.90
18067;DHT22;9158;51.528;7.192;2022-08-19T01:36:30;18.70;99.90
18067;DHT22;9158;51.528;7.192;2022-08-19T01:37:06;18.70;99.90
18067;DHT22;9158;51.528;7.192;2022-08-19T01:37:46;18.60;99.90
18067;DHT22;9158;51.528;7.192;2022-08-19T01:38:24;18.60;99.90
18067;DHT22;9158;51.528;7.192;2022-08-19T01:38:57;18.60;99.90
18067;DHT22;9158;51.528;7.192;2022-08-19T01:39:28;18.60;99.90
18067;DHT22;9158;51.528;7.192;2022-08-19T01:39:59;18.50;99.90
18067;DHT22;9158;51.528;7.192;2022-08-19T01:40:32;18.50;99.90
18067;DHT22;9158;51.528;7.192;2022-08-19T01:41:04;18.50;99.90
18067;DHT22;9158;51.528;7.192;2022-08-19T01:41:36;18.50;99.90
18067;DHT22;9158;51.528;7.192;2022-08-19T01:42:09;18.50;99.90
18067;DHT22;9158;51.528;7.192;2022-08-19T01:42:41;18.40;99.90
18067;DHT22;9158;51.528;7.192;2022-08-19T01:43:12;18.40;1.00
18067;DHT22;9158;51.528;7.192;2022-08-19T01:43:45;18.40;1.00
18067;DHT22;9158;51.528;7.192;2022-08-19T01:44:16;18.30;1.00
18067;DHT22;9158;51.528;7.192;2022-08-19T01:44:47;18.30;1.00
18067;DHT22;9158;51.528;7.192;2022-08-19T01:45:20;18.30;1.00
18067;DHT22;9158;51.528;7.192;2022-08-19T01:45:52;18.30;1.00
18067;DHT22;9158;51.528;7.192;2022-08-19T01:46:23;18.20;1.00
18067;DHT22;9158;51.528;7.192;2022-08-19T01:46:55;18.20;49.80
18067;DHT22;9158;51.528;7.192;2022-08-19T01:47:26;18.20;99.90
18067;DHT22;9158;51.528;7.192;2022-08-19T01:47:59;18.20;99.90
18067;DHT22;9158;51.528;7.192;2022-08-19T01:48:34;18.20;99.90
18067;DHT22;9158;51.528;7.192;2022-08-19T01:49:06;18.20;99.90
18067;DHT22;9158;51.528;7.192;2022-08-19T01:49:37;18.20;99.90
18067;DHT22;9158;51.528;7.192;2022-08-19T01:50:11;18.10;99.90
18067;DHT22;9158;51.528;7.192;2022-08-19T01:50:43;18.10;99.90
18067;DHT22;9158;51.528;7.192;2022-08-19T01:51:14;18.10;99.90
18067;DHT22;9158;51.528;7.192;2022-08-19T01:51:45;18.10;99.90
18067;DHT22;9158;51.528;7.192;2022-08-19T01:52:17;18.10;1.00
18067;DHT22;9158;51.528;7.192;2022-08-19T01:52:48;18.10;1.00
18067;DHT22;9158;51.528;7.192;2022-08-19T01:53:20;18.10;1.00
18067;DHT22;9158;51.528;7.192;2022-08-19T01:53:53;18.20;1.00
18067;DHT22;9158;51.528;7.192;2022-08-19T01:54:24;18.20;1.00
18067;DHT22;9158;51.528;7.192;2022-08-19T01:54:55;18.20;1.00
18067;DHT22;9158;51.528;7.192;2022-08-19T01:55:27;18.20;1.00
18067;DHT22;9158;51.528;7.192;2022-08-19T01:55:58;18.20;1.00
18067;DHT22;9158;51.528;7.192;2022-08-19T01:56:30;18.20;1.00
18067;DHT22;9158;51.528;7.192;2022-08-19T01:57:07;18.20;1.00
18067;DHT22;9158;51.528;7.192;2022-08-19T01:57:41;18.20;1.00
18067;DHT22;9158;51.528;7.192;2022-08-19T01:58:17;18.20;1.00
18067;DHT22;9158;51.528;7.192;2022-08-19T01:58:54;18.20;1.00
18067;DHT22;9158;51.528;7.192;2022-08-19T01:59:26;18.10;1.00
18067;DHT22;9158;51.528;7.192;2022-08-19T01:59:58;18.10;1.00
18067;DHT22;9158;51.528;7.192;2022-08-19T02:00:31;18.10;1.00
18067;DHT22;9158;51.528;7.192;2022-08-19T02:01:03;18.10;1.00
18067;DHT22;9158;51.528;7.192;2022-08-19T02:01:34;18.10;1.00
18067;DHT22;9158;51.528;7.192;2022-08-19T02:02:06;18.10;1.00
18067;DHT22;9158;51.528;7.192;2022-08-19T02:02:38;18.10;1.00
18067;DHT22;9158;51.528;7.192;2022-08-19T02:03:10;18.00;1.00
18067;DHT22;9158;51.528;7.192;2022-08-19T02:03:41;18.00;1.00
18067;DHT22;9158;51.528;7.192;2022-08-19T02:04:13;18.00;1.00
18067;DHT22;9158;51.528;7.192;2022-08-19T02:04:44;18.00;1.00
18067;DHT22;9158;51.528;7.192;2022-08-19T02:05:16;18.00;1.00
18067;DHT22;9158;51.528;7.192;2022-08-19T02:05:54;18.10;1.00
18067;DHT22;9158;51.528;7.192;2022-08-19T02:06:25;18.10;1.00
18067;DHT22;9158;51.528;7.192;2022-08-19T02:06:57;18.10;1.00
18067;DHT22;9158;51.528;7.192;2022-08-19T02:07:28;18.10;1.00
18067;DHT22;9158;51.528;7.192;2022-08-19T02:07:59;18.10;1.00
18067;DHT22;9158;51.528;7.192;2022-08-19T02:08:36;18.00;1.00
18067;DHT22;9158;51.528;7.192;2022-08-19T02:09:08;18.00;1.00
18067;DHT22;9158;51.528;7.192;2022-08-19T02:09:39;18.00;1.00
18067;DHT22;9158;51.528;7.192;2022-08-19T02:10:15;18.00;1.00
18067;DHT22;9158;51.528;7.192;2022-08-19T02:10:46;18.00;1.00
18067;DHT22;9158;51.528;7.192;2022-08-19T02:11:19;18.00;1.00
18067;DHT22;9158;51.528;7.192;2022-08-19T02:11:51;18.00;99.10
18067;DHT22;9158;51.528;7.192;2022-08-19T02:12:24;18.00;99.90
18067;DHT22;9158;51.528;7.192;2022-08-19T02:12:54;18.00;99.90
18067;DHT22;9158;51.528;7.192;2022-08-19T02:13:26;18.00;99.90
18067;DHT22;9158;51.528;7.192;2022-08-19T02:13:59;17.90;99.90
18067;DHT22;9158;51.528;7.192;2022-08-19T02:14:30;17.90;99.90
18067;DHT22;9158;51.528;7.192;2022-08-19T02:15:02;17.90;99.90
18067;DHT22;9158;51.528;7.192;2022-08-19T02:15:34;17.90;1.00
18067;DHT22;9158;51.528;7.192;2022-08-19T02:16:05;17.90;1.00
18067;DHT22;9158;51.528;7.192;2022-08-19T02:16:36;17.90;1.00
18067;DHT22;9158;51.528;7.192;2022-08-19T02:17:08;17.90;1.00
18067;DHT22;9158;51.528;7.192;2022-08-19T02:17:39;17.90;1.00
18067;DHT22;9158;51.528;7.192;2022-08-19T02:18:11;17.90;1.00
18067;DHT22;9158;51.528;7.192;2022-08-19T02:18:42;18.00;1.00
18067;DHT22;9158;51.528;7.192;2022-08-19T02:19:14;18.00;1.00
18067;DHT22;9158;51.528;7.192;2022-08-19T02:19:45;18.00;1.00
18067;DHT22;9158;51.528;7.192;2022-08-19T02:20:16;18.00;1.00
18067;DHT22;9158;51.528;7.192;2022-08-19T02:20:48;18.00;1.00
18067;DHT22;9158;51.528;7.192;2022-08-19T02:21:21;18.00;1.00
18067;DHT22;9158;51.528;7.192;2022-08-19T02:21:52;18.00;1.00
18067;DHT22;9158;51.528;7.192;2022-08-19T02:22:24;18.00;1.00
18067;DHT22;9158;51.528;7.192;2022-08-19T02:22:56;18.00;1.00
18067;DHT22;9158;51.528;7.192;2022-08-19T02:23:27;18.10;1.00
18067;DHT22;9158;51.528;7.192;2022-08-19T02:24:00;18.10;1.00
18067;DHT22;9158;51.528;7.192;2022-08-19T02:24:31;18.10;1.00
18067;DHT22;9158;51.528;7.192;2022-08-19T02:25:02;18.10;1.00
18067;DHT22;9158;51.528;7.192;2022-08-19T02:25:34;18.20;99.90
18067;DHT22;9158;51.528;7.192;2022-08-19T02:26:05;18.20;99.90
18067;DHT22;9158;51.528;7.192;2022-08-19T02:26:37;18.20;99.90
18067;DHT22;9158;51.528;7.192;2022-08-19T02:27:09;18.20;99.90
18067;DHT22;9158;51.528;7.192;2022-08-19T02:27:41;18.30;99.90
18067;DHT22;9158;51.528;7.192;2022-08-19T02:28:12;18.30;99.90
18067;DHT22;9158;51.528;7.192;2022-08-19T02:28:44;18.30;99.90
18067;DHT22;9158;51.528;7.192;2022-08-19T02:29:15;18.30;12.70
18067;DHT22;9158;51.528;7.192;2022-08-19T02:29:47;18.40;1.00
18067;DHT22;9158;51.528;7.192;2022-08-19T02:30:20;18.40;1.00
18067;DHT22;9158;51.528;7.192;2022-08-19T02:30:51;18.40;1.00
18067;DHT22;9158;51.528;7.192;2022-08-19T02:31:24;18.40;1.00
18067;DHT22;9158;51.528;7.192;2022-08-19T02:31:55;18.40;1.00
18067;DHT22;9158;51.528;7.192;2022-08-19T02:32:27;18.40;1.00
18067;DHT22;9158;51.528;7.192;2022-08-19T02:32:58;18.40;1.00
18067;DHT22;9158;51.528;7.192;2022-08-19T02:33:30;18.40;99.90
18067;DHT22;9158;51.528;7.192;2022-08-19T02:34:02;18.40;99.90
18067;DHT22;9158;51.528;7.192;2022-08-19T02:34:34;18.40;99.90
18067;DHT22;9158;51.528;7.192;2022-08-19T02:35:06;18.40;99.90
18067;DHT22;9158;51.528;7.192;2022-08-19T02:35:41;18.40;99.90
18067;DHT22;9158;51.528;7.192;2022-08-19T02:36:13;18.40;99.90
18067;DHT22;9158;51.528;7.192;2022-08-19T02:36:45;18.40;99.90
18067;DHT22;9158;51.528;7.192;2022-08-19T02:37:16;18.40;99.90
18067;DHT22;9158;51.528;7.192;2022-08-19T02:38:06;18.40;99.90
18067;DHT22;9158;51.528;7.192;2022-08-19T02:38:56;18.40;46.90
18067;DHT22;9158;51.528;7.192;2022-08-19T02:39:28;18.50;22.00
18067;DHT22;9158;51.528;7.192;2022-08-19T02:39:59;18.40;1.00
18067;DHT22;9158;51.528;7.192;2022-08-19T02:40:30;18.50;20.10
18067;DHT22;9158;51.528;7.192;2022-08-19T02:41:07;18.40;1.00
18067;DHT22;9158;51.528;7.192;2022-08-19T02:41:38;18.50;1.00
18067;DHT22;9158;51.528;7.192;2022-08-19T02:42:10;18.50;1.00
18067;DHT22;9158;51.528;7.192;2022-08-19T02:42:41;18.50;1.00
18067;DHT22;9158;51.528;7.192;2022-08-19T02:43:13;18.50;1.00
18067;DHT22;9158;51.528;7.192;2022-08-19T02:43:44;18.50;1.00
18067;DHT22;9158;51.528;7.192;2022-08-19T02:44:16;18.50;1.00
18067;DHT22;9158;51.528;7.192;2022-08-19T02:44:47;18.50;1.00
18067;DHT22;9158;51.528;7.192;2022-08-19T02:45:18;18.50;1.00
18067;DHT22;9158;51.528;7.192;2022-08-19T02:45:50;18.50;1.00
18067;DHT22;9158;51.528;7.192;2022-08-19T02:46:23;18.50;1.00
18067;DHT22;9158;51.528;7.192;2022-08-19T02:46:54;18.50;1.00
18067;DHT22;9158;51.528;7.192;2022-08-19T02:47:26;18.50;1.00
18067;DHT22;9158;51.528;7.192;2022-08-19T02:47:56;18.40;1.00
18067;DHT22;9158;51.528;7.192;2022-08-19T02:48:29;18.50;1.00
18067;DHT22;9158;51.528;7.192;2022-08-19T02:49:01;18.40;1.00
18067;DHT22;9158;51.528;7.192;2022-08-19T02:49:33;18.40;1.00
18067;DHT22;9158;51.528;7.192;2022-08-19T02:50:05;18.30;1.00
18067;DHT22;9158;51.528;7.192;2022-08-19T02:50:37;18.30;1.00
18067;DHT22;9158;51.528;7.192;2022-08-19T02:51:15;18.30;1.00
18067;DHT22;9158;51.528;7.192;2022-08-19T02:51:47;18.20;1.00
18067;DHT22;9158;51.528;7.192;2022-08-19T02:52:18;18.20;1.00
18067;DHT22;9158;51.528;7.192;2022-08-19T02:52:49;18.20;1.00
18067;DHT22;9158;51.528;7.192;2022-08-19T02:53:20;18.20;97.40
18067;DHT22;9158;51.528;7.192;2022-08-19T02:53:53;18.20;99.90
18067;DHT22;9158;51.528;7.192;2022-08-19T02:54:24;18.20;99.90
18067;DHT22;9158;51.528;7.192;2022-08-19T02:54:57;18.20;99.90
18067;DHT22;9158;51.528;7.192;2022-08-19T02:55:28;18.20;99.90
18067;DHT22;9158;51.528;7.192;2022-08-19T02:56:00;18.20;99.90
18067;DHT22;9158;51.528;7.192;2022-08-19T02:56:31;18.20;99.90
18067;DHT22;9158;51.528;7.192;2022-08-19T02:57:02;18.20;99.90
18067;DHT22;9158;51.528;7.192;2022-08-19T02:57:34;18.30;99.90
18067;DHT22;9158;51.528;7.192;2022-08-19T02:58:06;18.30;99.90
18067;DHT22;9158;51.528;7.192;2022-08-19T02:58:37;18.30;99.90
18067;DHT22;9158;51.528;7.192;2022-08-19T02:59:09;18.30;99.90
18067;DHT22;9158;51.528;7.192;2022-08-19T02:59:40;18.30;79.40
18067;DHT22;9158;51.528;7.192;2022-08-19T03:00:12;18.30;21.80
18067;DHT22;9158;51.528;7.192;2022-08-19T03:00:44;18.30;1.00
18067;DHT22;9158;51.528;7.192;2022-08-19T03:01:20;18.30;1.00
18067;DHT22;9158;51.528;7.192;2022-08-19T03:01:52;18.40;1.00
18067;DHT22;9158;51.528;7.192;2022-08-19T03:02:23;18.40;1.00
18067;DHT22;9158;51.528;7.192;2022-08-19T03:02:55;18.40;1.00
18067;DHT22;9158;51.528;7.192;2022-08-19T03:03:27;18.40;1.00
18067;DHT22;9158;51.528;7.192;2022-08-19T03:04:00;18.40;1.00
18067;DHT22;9158;51.528;7.192;2022-08-19T03:04:32;18.40;1.00
18067;DHT22;9158;51.528;7.192;2022-08-19T03:05:07;18.40;1.00
18067;DHT22;9158;51.528;7.192;2022-08-19T03:05:38;18.40;1.00
18067;DHT22;9158;51.528;7.192;2022-08-19T03:06:12;18.40;1.00
18067;DHT22;9158;51.528;7.192;2022-08-19T03:06:46;18.40;1.00
18067;DHT22;9158;51.528;7.192;2022-08-19T03:07:17;18.40;1.00
18067;DHT22;9158;51.528;7.192;2022-08-19T03:07:49;18.40;1.00
18067;DHT22;9158;51.528;7.192;2022-08-19T03:08:20;18.50;1.00
18067;DHT22;9158;51.528;7.192;2022-08-19T03:08:52;18.40;1.00
18067;DHT22;9158;51.528;7.192;2022-08-19T03:09:23;18.50;1.00
18067;DHT22;9158;51.528;7.192;2022-08-19T03:09:54;18.40;1.00
18067;DHT22;9158;51.528;7.192;2022-08-19T03:10:26;18.40;1.00
18067;DHT22;9158;51.528;7.192;2022-08-19T03:10:58;18.40;1.00
18067;DHT22;9158;51.528;7.192;2022-08-19T03:11:31;18.50;1.00
18067;DHT22;9158;51.528;7.192;2022-08-19T03:12:03;18.50;1.00
18067;DHT22;9158;51.528;7.192;2022-08-19T03:12:35;18.50;1.00
18067;DHT22;9158;51.528;7.192;2022-08-19T03:13:06;18.50;1.00
18067;DHT22;9158;51.528;7.192;2022-08-19T03:13:38;18.50;1.00
18067;DHT22;9158;51.528;7.192;2022-08-19T03:14:11;18.50;1.00
18067;DHT22;9158;51.528;7.192;2022-08-19T03:14:42;18.50;1.00
18067;DHT22;9158;51.528;7.192;2022-08-19T03:15:13;18.50;1.00
18067;DHT22;9158;51.528;7.192;2022-08-19T03:15:47;18.50;1.00
18067;DHT22;9158;51.528;7.192;2022-08-19T03:16:19;18.50;1.00
18067;DHT22;9158;51.528;7.192;2022-08-19T03:16:51;18.50;99.90
18067;DHT22;9158;51.528;7.192;2022-08-19T03:17:23;18.50;99.90
18067;DHT22;9158;51.528;7.192;2022-08-19T03:17:54;18.50;99.90
18067;DHT22;9158;51.528;7.192;2022-08-19T03:18:25;18.50;99.90
18067;DHT22;9158;51.528;7.192;2022-08-19T03:18:57;18.50;99.90
18067;DHT22;9158;51.528;7.192;2022-08-19T03:19:30;18.50;99.90
18067;DHT22;9158;51.528;7.192;2022-08-19T03:20:03;18.50;99.90
18067;DHT22;9158;51.528;7.192;2022-08-19T03:20:40;18.40;99.90
18067;DHT22;9158;51.528;7.192;2022-08-19T03:21:17;18.40;99.90
18067;DHT22;9158;51.528;7.192;2022-08-19T03:21:48;18.40;99.90
18067;DHT22;9158;51.528;7.192;2022-08-19T03:22:20;18.40;99.90
18067;DHT22;9158;51.528;7.192;2022-08-19T03:22:51;18.30;99.90
18067;DHT22;9158;51.528;7.192;2022-08-19T03:23:23;18.40;99.90
18067;DHT22;9158;51.528;7.192;2022-08-19T03:23:56;18.30;99.90
18067;DHT22;9158;51.528;7.192;2022-08-19T03:24:27;18.30;99.90
18067;DHT22;9158;51.528;7.192;2022-08-19T03:24:58;18.30;99.90
18067;DHT22;9158;51.528;7.192;2022-08-19T03:25:37;18.20;1.00
18067;DHT22;9158;51.528;7.192;2022-08-19T03:26:08;18.20;1.00
18067;DHT22;9158;51.528;7.192;2022-08-19T03:26:40;18.20;1.00
18067;DHT22;9158;51.528;7.192;2022-08-19T03:27:11;18.10;1.00
18067;DHT22;9158;51.528;7.192;2022-08-19T03:27:44;18.20;1.00
18067;DHT22;9158;51.528;7.192;2022-08-19T03:28:20;18.20;1.00
18067;DHT22;9158;51.528;7.192;2022-08-19T03:28:51;18.10;1.00
18067;DHT22;9158;51.528;7.192;2022-08-19T03:29:23;18.10;1.00
18067;DHT22;9158;51.528;7.192;2022-08-19T03:29:54;18.10;1.00
18067;DHT22;9158;51.528;7.192;2022-08-19T03:30:25;18.10;1.00
18067;DHT22;9158;51.528;7.192;2022-08-19T03:31:00;18.10;1.00